Time;durP1;ratioP1;P1;durP2;ratioP2;P2;SDS_P1;SDS_P2;PMS_P1;PMS_P2;Temp;Humidity;BMP_temperature;BMP_pressure;BME280_temperature;BME280_humidity;BME280_pressure;Samples;Min_cycle;Max_cycle;Signal;HPM_P1;HPM_P2
2022/04/23 00:01:06;;;;;;;;;;;10.80;99.90;;;;;;5051535;28;19956;-76
2022/04/23 00:03:33;;;;;;;;;;;10.80;99.90;;;;;;5052101;28;19993;-76
2022/04/23 00:06:00;;;;;;;;;;;10.70;99.90;;;;;;5048372;28;20277;-76
2022/04/23 00:08:27;;;;;;;;;;;10.70;99.90;;;;;;5049880;28;20038;-76
2022/04/23 00:10:55;;;;;;;;;;;10.70;99.90;;;;;;5043649;28;19924;-76
2022/04/23 00:13:22;;;;;;;;;;;10.70;99.90;;;;;;5045976;28;19979;-77
2022/04/23 00:15:48;;;;;;;;;;;10.60;99.90;;;;;;5050735;28;19921;-77
2022/04/23 00:18:15;;;;;;;;;;;10.60;99.90;;;;;;5051161;28;19920;-76
2022/04/23 00:20:42;;;;;;;;;;;10.60;99.90;;;;;;5059162;28;19920;-77
2022/04/23 00:23:09;;;;;;;;;;;10.50;99.90;;;;;;5052830;28;19927;-78
2022/04/23 00:25:37;;;;;;;;;;;10.50;99.90;;;;;;5057230;28;19924;-79
2022/04/23 00:28:05;;;;;;;;;;;10.50;99.90;;;;;;5051728;28;19951;-78
2022/04/23 00:30:32;;;;;;;;;;;10.40;99.90;;;;;;5052592;28;20286;-80
2022/04/23 00:33:00;;;;;;;;;;;10.30;99.90;;;;;;5052324;28;19927;-79
2022/04/23 00:35:27;;;;;;;;;;;10.30;99.90;;;;;;5047108;28;19920;-77
2022/04/23 00:37:54;;;;;;;;;;;10.30;99.90;;;;;;5056889;28;20051;-76
2022/04/23 00:40:24;;;;;;;;;;;10.20;99.90;;;;;;5061826;28;20269;-76
2022/04/23 00:42:52;;;;;;;;;;;10.20;99.90;;;;;;5053054;28;19921;-76
2022/04/23 00:45:20;;;;;;;;;;;10.10;99.90;;;;;;5055964;28;20349;-76
2022/04/23 00:47:47;;;;;;;;;;;10.10;99.90;;;;;;5052864;28;19948;-76
2022/04/23 00:50:14;;;;;;;;;;;10.00;99.90;;;;;;5050429;28;19931;-76
2022/04/23 00:52:41;;;;;;;;;;;10.00;99.90;;;;;;5051616;28;19982;-79
2022/04/23 00:55:08;;;;;;;;;;;9.90;99.90;;;;;;5066048;28;19925;-80
2022/04/23 00:57:36;;;;;;;;;;;9.90;99.90;;;;;;5061079;28;19921;-80
2022/04/23 01:00:06;;;;;;;;;;;9.90;99.90;;;;;;5072243;28;19928;-79
2022/04/23 01:02:34;;;;;;;;;;;9.90;99.90;;;;;;5059934;28;20015;-79
2022/04/23 01:05:01;;;;;;;;;;;9.80;99.90;;;;;;5047422;28;19935;-79
2022/04/23 01:07:28;;;;;;;;;;;9.80;99.90;;;;;;5049073;28;19924;-76
2022/04/23 01:09:55;;;;;;;;;;;9.80;99.90;;;;;;5052423;28;19928;-77
2022/04/23 01:12:23;;;;;;;;;;;9.70;99.90;;;;;;5048576;28;20387;-76
2022/04/23 01:14:59;;;;;;;;;;;9.80;99.90;;;;;;5047725;28;20310;-76
2022/04/23 01:17:26;;;;;;;;;;;9.80;99.90;;;;;;5060793;28;19936;-76
2022/04/23 01:19:54;;;;;;;;;;;9.70;99.90;;;;;;5059779;28;19921;-76
2022/04/23 01:22:24;;;;;;;;;;;9.70;99.90;;;;;;5051185;28;20042;-76
2022/04/23 01:24:52;;;;;;;;;;;9.70;99.90;;;;;;5051100;28;20010;-79
2022/04/23 01:27:19;;;;;;;;;;;9.70;99.90;;;;;;5049879;28;19978;-78
2022/04/23 01:29:46;;;;;;;;;;;9.60;99.90;;;;;;5047093;28;20379;-78
2022/04/23 01:32:12;;;;;;;;;;;9.60;99.90;;;;;;5049429;28;19924;-78
2022/04/23 01:34:39;;;;;;;;;;;9.60;99.90;;;;;;5051285;28;20247;-79
2022/04/23 01:37:07;;;;;;;;;;;9.50;99.90;;;;;;5047843;28;19958;-78
2022/04/23 01:39:35;;;;;;;;;;;9.50;99.90;;;;;;5048006;28;19944;-77
2022/04/23 01:42:02;;;;;;;;;;;9.50;99.90;;;;;;5049360;28;20007;-77
2022/04/23 01:44:29;;;;;;;;;;;9.50;99.90;;;;;;5045844;28;20332;-79
2022/04/23 01:46:55;;;;;;;;;;;9.50;99.90;;;;;;5050079;28;20386;-78
2022/04/23 01:49:22;;;;;;;;;;;9.50;99.90;;;;;;5051704;28;20636;-78
2022/04/23 01:51:49;;;;;;;;;;;9.50;99.90;;;;;;5051338;28;19921;-78
2022/04/23 01:54:16;;;;;;;;;;;9.50;99.90;;;;;;5050924;28;19928;-78
2022/04/23 01:56:44;;;;;;;;;;;9.50;99.90;;;;;;5057983;28;19921;-78
2022/04/23 01:59:10;;;;;;;;;;;9.60;99.90;;;;;;5051010;28;20393;-78
2022/04/23 02:01:37;;;;;;;;;;;9.60;99.90;;;;;;5059635;28;19931;-78
2022/04/23 02:04:06;;;;;;;;;;;10.30;99.90;;;;;;5052248;28;19927;-78
2022/04/23 02:06:33;;;;;;;;;;;9.60;99.90;;;;;;5050213;28;19980;-78
2022/04/23 02:09:00;;;;;;;;;;;9.60;99.90;;;;;;5050137;28;20367;-78
2022/04/23 02:11:27;;;;;;;;;;;9.60;99.90;;;;;;5048421;28;20314;-78
2022/04/23 02:13:55;;;;;;;;;;;9.60;99.90;;;;;;5067158;28;19939;-78
2022/04/23 02:16:21;;;;;;;;;;;9.60;99.90;;;;;;5045111;28;20501;-78
2022/04/23 02:18:48;;;;;;;;;;;9.60;99.90;;;;;;5049653;28;19966;-79
2022/04/23 02:21:15;;;;;;;;;;;9.60;99.90;;;;;;5051001;28;20010;-78
2022/04/23 02:23:43;;;;;;;;;;;9.50;99.90;;;;;;5048603;28;19983;-79
2022/04/23 02:26:09;;;;;;;;;;;9.50;99.90;;;;;;5049676;28;20394;-78
2022/04/23 02:28:38;;;;;;;;;;;9.50;99.90;;;;;;5043724;28;19925;-79
2022/04/23 02:31:07;;;;;;;;;;;9.50;99.90;;;;;;5045921;28;20077;-78
2022/04/23 02:33:34;;;;;;;;;;;9.50;99.90;;;;;;5048344;28;19925;-79
2022/04/23 02:36:01;;;;;;;;;;;9.50;99.90;;;;;;5050164;28;19921;-78
2022/04/23 02:38:28;;;;;;;;;;;9.50;99.90;;;;;;5044962;28;19947;-76
2022/04/23 02:40:55;;;;;;;;;;;9.50;99.90;;;;;;5060875;28;19979;-76
2022/04/23 02:43:21;;;;;;;;;;;9.50;99.90;;;;;;5061232;28;19920;-76
2022/04/23 02:45:48;;;;;;;;;;;9.60;99.90;;;;;;5061504;28;19978;-76
2022/04/23 02:48:16;;;;;;;;;;;9.50;99.90;;;;;;5052940;28;19927;-78
2022/04/23 02:50:44;;;;;;;;;;;9.60;99.90;;;;;;5061608;28;19925;-78
2022/04/23 02:53:11;;;;;;;;;;;9.60;99.90;;;;;;5041284;28;19920;-78
2022/04/23 02:55:38;;;;;;;;;;;9.60;99.90;;;;;;5050432;28;19986;-78
2022/04/23 02:58:07;;;;;;;;;;;9.60;99.90;;;;;;5046294;28;19920;-78
2022/04/23 03:00:34;;;;;;;;;;;9.60;99.90;;;;;;5042911;28;20120;-76
2022/04/23 03:03:01;;;;;;;;;;;9.60;99.90;;;;;;5046291;28;20471;-76
2022/04/23 03:05:30;;;;;;;;;;;9.60;99.90;;;;;;5043826;28;20458;-76
2022/04/23 03:07:59;;;;;;;;;;;9.60;99.90;;;;;;5047566;28;19928;-76
2022/04/23 03:10:26;;;;;;;;;;;9.60;99.90;;;;;;5051385;28;19980;-76
2022/04/23 03:12:55;;;;;;;;;;;9.60;99.90;;;;;;5050294;28;20351;-76
2022/04/23 03:15:21;;;;;;;;;;;9.60;99.90;;;;;;5043725;28;20456;-76
2022/04/23 03:17:48;;;;;;;;;;;9.60;99.90;;;;;;5048085;28;20348;-77
2022/04/23 03:20:15;;;;;;;;;;;9.60;99.90;;;;;;5051349;28;19920;-76
2022/04/23 03:22:43;;;;;;;;;;;9.60;99.90;;;;;;5048927;28;19932;-76
2022/04/23 03:25:11;;;;;;;;;;;9.50;99.90;;;;;;5046943;28;19932;-76
2022/04/23 03:27:37;;;;;;;;;;;9.50;99.90;;;;;;5039596;28;19920;-78
2022/04/23 03:30:05;;;;;;;;;;;9.50;99.90;;;;;;5048864;28;19986;-78
2022/04/23 03:32:33;;;;;;;;;;;9.50;99.90;;;;;;5045667;28;20001;-78
2022/04/23 03:35:00;;;;;;;;;;;9.50;99.90;;;;;;5044977;28;19921;-78
2022/04/23 03:37:27;;;;;;;;;;;9.50;99.90;;;;;;5036775;28;20354;-78
2022/04/23 03:39:55;;;;;;;;;;;9.60;99.90;;;;;;5045978;28;19924;-78
2022/04/23 03:42:22;;;;;;;;;;;9.60;99.90;;;;;;5048590;28;20668;-78
2022/04/23 03:44:49;;;;;;;;;;;9.50;99.90;;;;;;5047746;28;19931;-78
2022/04/23 03:47:16;;;;;;;;;;;9.50;99.90;;;;;;5045195;28;19924;-78
2022/04/23 03:49:43;;;;;;;;;;;9.50;99.90;;;;;;5049978;28;19975;-78
2022/04/23 03:52:10;;;;;;;;;;;9.50;99.90;;;;;;5059127;28;19921;-78
2022/04/23 03:54:37;;;;;;;;;;;9.50;99.90;;;;;;5065035;28;19924;-78
2022/04/23 03:57:05;;;;;;;;;;;9.50;99.90;;;;;;5055684;28;19925;-78
2022/04/23 03:59:32;;;;;;;;;;;9.50;99.90;;;;;;5050967;28;19929;-78
2022/04/23 04:02:03;;;;;;;;;;;9.40;99.90;;;;;;5053636;28;20453;-78
2022/04/23 04:04:31;;;;;;;;;;;9.40;99.90;;;;;;5058639;28;20382;-78
2022/04/23 04:06:58;;;;;;;;;;;9.40;99.90;;;;;;5052677;28;20340;-78
2022/04/23 04:09:24;;;;;;;;;;;9.40;99.90;;;;;;5050302;28;19932;-78
2022/04/23 04:12:03;;;;;;;;;;;9.40;99.90;;;;;;5049975;28;19924;-78
2022/04/23 04:14:34;;;;;;;;;;;9.30;99.90;;;;;;5047809;28;19940;-78
2022/04/23 04:17:02;;;;;;;;;;;9.30;99.90;;;;;;5056008;28;19932;-78
2022/04/23 04:19:29;;;;;;;;;;;9.30;99.90;;;;;;5048507;28;20452;-78
2022/04/23 04:21:55;;;;;;;;;;;9.30;99.90;;;;;;5044912;28;19960;-78
2022/04/23 04:24:23;;;;;;;;;;;9.30;99.90;;;;;;5045540;28;20377;-78
2022/04/23 04:26:50;;;;;;;;;;;9.30;99.90;;;;;;5048835;28;19954;-78
2022/04/23 04:29:17;;;;;;;;;;;9.30;99.90;;;;;;5051676;28;20367;-78
2022/04/23 04:31:49;;;;;;;;;;;9.30;99.90;;;;;;5051850;28;20428;-78
2022/04/23 04:34:17;;;;;;;;;;;9.30;99.90;;;;;;5051716;28;20439;-78
2022/04/23 04:36:43;;;;;;;;;;;9.30;99.90;;;;;;5050941;28;20428;-78
2022/04/23 04:39:10;;;;;;;;;;;9.30;99.90;;;;;;5051265;28;19928;-77
2022/04/23 04:41:37;;;;;;;;;;;9.40;99.90;;;;;;5049696;28;20420;-77
2022/04/23 04:44:04;;;;;;;;;;;9.40;99.90;;;;;;5052218;28;19957;-77
2022/04/23 04:46:31;;;;;;;;;;;9.40;99.90;;;;;;5051482;28;19969;-78
2022/04/23 04:48:59;;;;;;;;;;;9.50;99.90;;;;;;5049199;28;19921;-78
2022/04/23 04:51:25;;;;;;;;;;;9.50;99.90;;;;;;5049661;28;19925;-77
2022/04/23 04:53:53;;;;;;;;;;;11.60;99.90;;;;;;5046265;28;19928;-78
2022/04/23 04:56:19;;;;;;;;;;;9.60;99.90;;;;;;5067378;28;19963;-78
2022/04/23 04:58:46;;;;;;;;;;;9.70;99.90;;;;;;5066160;28;19943;-78
2022/04/23 05:01:13;;;;;;;;;;;9.70;99.90;;;;;;5061179;28;19924;-77
2022/04/23 05:03:40;;;;;;;;;;;10.80;99.90;;;;;;5053276;28;19932;-78
2022/04/23 05:06:08;;;;;;;;;;;9.80;99.90;;;;;;5053254;28;20350;-78
2022/04/23 05:08:35;;;;;;;;;;;9.90;99.90;;;;;;5050502;28;19984;-78
2022/04/23 05:11:02;;;;;;;;;;;10.00;99.90;;;;;;5049994;28;20568;-78
2022/04/23 05:13:29;;;;;;;;;;;10.10;99.90;;;;;;5053566;28;19933;-78
2022/04/23 05:15:55;;;;;;;;;;;10.20;99.90;;;;;;5059829;28;19924;-78
2022/04/23 05:18:22;;;;;;;;;;;10.20;99.90;;;;;;5058808;28;20032;-78
2022/04/23 05:20:49;;;;;;;;;;;10.30;99.90;;;;;;5057559;28;19929;-79
2022/04/23 05:23:17;;;;;;;;;;;10.40;99.90;;;;;;5052687;28;19928;-78
2022/04/23 05:25:44;;;;;;;;;;;10.60;99.90;;;;;;5046891;28;19943;-78
2022/04/23 05:28:11;;;;;;;;;;;10.60;99.90;;;;;;5047831;28;19985;-80
2022/04/23 05:30:38;;;;;;;;;;;11.60;99.90;;;;;;5039850;28;19920;-80
2022/04/23 05:33:05;;;;;;;;;;;10.90;99.90;;;;;;5048554;28;19988;-79
2022/04/23 05:35:32;;;;;;;;;;;11.10;99.90;;;;;;5054837;28;19925;-79
2022/04/23 05:37:58;;;;;;;;;;;11.60;99.90;;;;;;5053685;28;19921;-80
2022/04/23 05:40:27;;;;;;;;;;;12.30;99.90;;;;;;5050560;28;19925;-79
2022/04/23 05:42:55;;;;;;;;;;;13.00;99.90;;;;;;5053824;28;19925;-80
2022/04/23 05:45:23;;;;;;;;;;;14.70;99.90;;;;;;5057746;28;20389;-80
2022/04/23 05:47:49;;;;;;;;;;;14.50;99.90;;;;;;5047656;28;20335;-80
2022/04/23 05:50:16;;;;;;;;;;;15.10;99.90;;;;;;5038259;28;19921;-80
2022/04/23 05:52:43;;;;;;;;;;;15.60;99.90;;;;;;5054475;28;19932;-79
2022/04/23 05:55:10;;;;;;;;;;;16.00;99.90;;;;;;5055670;28;19932;-79
2022/04/23 05:57:38;;;;;;;;;;;16.40;99.90;;;;;;5052375;28;19921;-80
2022/04/23 06:00:06;;;;;;;;;;;17.30;99.90;;;;;;5046718;28;19947;-79
2022/04/23 06:02:38;;;;;;;;;;;17.30;99.90;;;;;;5044226;28;19944;-79
2022/04/23 06:05:05;;;;;;;;;;;17.70;99.90;;;;;;5051794;28;19928;-76
2022/04/23 06:07:32;;;;;;;;;;;18.30;99.90;;;;;;5064965;28;19929;-77
2022/04/23 06:09:59;;;;;;;;;;;18.70;99.90;;;;;;5052866;28;19925;-77
2022/04/23 06:12:26;;;;;;;;;;;19.00;99.90;;;;;;5052861;28;19924;-77
2022/04/23 06:14:54;;;;;;;;;;;19.20;99.90;;;;;;5046528;28;19929;-77
2022/04/23 06:17:24;;;;;;;;;;;19.80;99.90;;;;;;5042511;28;20298;-78
2022/04/23 06:19:50;;;;;;;;;;;20.10;99.90;;;;;;5046042;28;19928;-77
2022/04/23 06:22:18;;;;;;;;;;;20.30;99.90;;;;;;5050187;28;19925;-79
2022/04/23 06:24:45;;;;;;;;;;;20.20;99.90;;;;;;5052666;28;19952;-80
2022/04/23 06:27:11;;;;;;;;;;;20.30;99.90;;;;;;5051720;28;19925;-80
2022/04/23 06:29:38;;;;;;;;;;;20.40;99.90;;;;;;5049360;28;19925;-80
2022/04/23 06:32:07;;;;;;;;;;;20.40;99.90;;;;;;5041691;28;19921;-79
2022/04/23 06:34:35;;;;;;;;;;;20.40;99.90;;;;;;5038836;28;19932;-80
2022/04/23 06:37:02;;;;;;;;;;;20.50;99.90;;;;;;5050012;28;20449;-80
2022/04/23 06:39:28;;;;;;;;;;;20.80;99.90;;;;;;5046540;28;19925;-80
2022/04/23 06:41:55;;;;;;;;;;;20.80;99.90;;;;;;5048549;28;19925;-80
2022/04/23 06:44:22;;;;;;;;;;;22.30;99.90;;;;;;5050642;28;19925;-79
2022/04/23 06:46:48;;;;;;;;;;;21.40;99.90;;;;;;5053939;28;19932;-82
2022/04/23 06:49:16;;;;;;;;;;;21.50;99.90;;;;;;5054155;28;19925;-80
2022/04/23 06:51:43;;;;;;;;;;;22.00;99.90;;;;;;5047229;28;19935;-79
2022/04/23 06:54:10;;;;;;;;;;;21.90;99.90;;;;;;5048240;28;20488;-79
2022/04/23 06:56:37;;;;;;;;;;;22.30;99.90;;;;;;5048404;28;19928;-80
2022/04/23 06:59:04;;;;;;;;;;;22.50;99.90;;;;;;5046378;28;19940;-80
2022/04/23 07:01:31;;;;;;;;;;;22.80;99.90;;;;;;5050676;28;20047;-79
2022/04/23 07:03:57;;;;;;;;;;;22.90;99.90;;;;;;5048551;28;19928;-79
2022/04/23 07:06:25;;;;;;;;;;;23.10;99.90;;;;;;5054321;28;19928;-79
2022/04/23 07:08:52;;;;;;;;;;;23.20;99.90;;;;;;5043505;28;19932;-79
2022/04/23 07:11:19;;;;;;;;;;;23.70;99.90;;;;;;5053817;28;19932;-79
2022/04/23 07:13:46;;;;;;;;;;;24.20;99.90;;;;;;5056647;28;19951;-79
2022/04/23 07:16:14;;;;;;;;;;;24.20;99.90;;;;;;5043408;28;20366;-79
2022/04/23 07:18:40;;;;;;;;;;;24.20;99.90;;;;;;5047039;28;20344;-79
2022/04/23 07:21:07;;;;;;;;;;;24.40;99.90;;;;;;5050082;28;20095;-80
2022/04/23 07:26:19;;;;;;;;;;;25.80;99.90;;;;;;5045691;28;19924;-80
2022/04/23 07:28:46;;;;;;;;;;;25.90;99.60;;;;;;5050597;28;19920;-80
2022/04/23 07:31:13;;;;;;;;;;;26.10;96.60;;;;;;5053834;28;20289;-79
2022/04/23 07:39:09;;;;;;;;;;;25.60;95.40;;;;;;5042273;28;20018;-79
2022/04/23 07:41:36;;;;;;;;;;;25.60;94.80;;;;;;5048054;28;20425;-80
2022/04/23 07:44:03;;;;;;;;;;;25.50;93.90;;;;;;5052961;28;19947;-79
2022/04/23 07:46:30;;;;;;;;;;;25.10;93.80;;;;;;5051818;28;20062;-80
2022/04/23 07:48:58;;;;;;;;;;;25.10;93.80;;;;;;5046159;28;20059;-80
2022/04/23 07:51:26;;;;;;;;;;;25.00;93.60;;;;;;5051390;28;20512;-77
2022/04/23 07:53:53;;;;;;;;;;;24.90;93.80;;;;;;5053429;28;19921;-77
2022/04/23 07:56:21;;;;;;;;;;;25.10;94.60;;;;;;5056248;28;19936;-77
2022/04/23 07:58:48;;;;;;;;;;;25.20;94.50;;;;;;5057461;28;20386;-76
2022/04/23 08:01:15;;;;;;;;;;;25.40;92.70;;;;;;5058034;28;19951;-77
2022/04/23 08:03:42;;;;;;;;;;;25.30;92.60;;;;;;5046450;28;19925;-76
2022/04/23 08:06:10;;;;;;;;;;;25.10;92.40;;;;;;5056240;28;20013;-76
2022/04/23 08:08:36;;;;;;;;;;;25.00;93.00;;;;;;5045392;28;20040;-76
2022/04/23 08:11:03;;;;;;;;;;;25.20;93.60;;;;;;5047195;28;19979;-76
2022/04/23 08:13:32;;;;;;;;;;;25.20;93.10;;;;;;5048997;28;19925;-76
2022/04/23 08:15:59;;;;;;;;;;;25.40;93.20;;;;;;5050543;28;19955;-76
2022/04/23 08:18:27;;;;;;;;;;;24.70;92.80;;;;;;5067708;28;20341;-76
2022/04/23 08:20:53;;;;;;;;;;;24.60;92.00;;;;;;5058922;28;19943;-76
2022/04/23 08:23:20;;;;;;;;;;;24.60;92.00;;;;;;5063380;28;19947;-75
2022/04/23 08:25:48;;;;;;;;;;;24.90;92.60;;;;;;5064019;28;19950;-76
2022/04/23 08:31:00;;;;;;;;;;;25.00;92.00;;;;;;5046817;28;19921;-76
2022/04/23 08:33:57;;;;;;;;;;;24.70;91.40;;;;;;5045113;28;20350;-77
2022/04/23 08:36:14;;;;;;;;;;;23.60;91.40;;;;;;5046490;28;19925;-77
2022/04/23 08:38:41;;;;;;;;;;;23.60;91.90;;;;;;5051082;28;19929;-76
2022/04/23 08:41:08;;;;;;;;;;;23.30;91.90;;;;;;5049671;28;20030;-77
2022/04/23 08:43:35;;;;;;;;;;;23.30;92.20;;;;;;5045808;28;19935;-77
2022/04/23 08:46:03;;;;;;;;;;;23.40;92.60;;;;;;5058343;28;19921;-79
2022/04/23 08:48:34;;;;;;;;;;;23.50;92.90;;;;;;5051833;28;20275;-78
2022/04/23 08:51:02;;;;;;;;;;;23.80;92.70;;;;;;5060008;28;19998;-81
2022/04/23 08:53:31;;;;;;;;;;;23.90;92.70;;;;;;5058037;28;19927;-80
2022/04/23 08:55:59;;;;;;;;;;;23.60;91.50;;;;;;5052257;28;19980;-80
2022/04/23 08:58:25;;;;;;;;;;;23.60;91.60;;;;;;5069594;28;19938;-80
2022/04/23 09:00:52;;;;;;;;;;;23.30;92.30;;;;;;5055408;28;19928;-80
2022/04/23 09:03:20;;;;;;;;;;;23.20;92.40;;;;;;5046655;28;20002;-79
2022/04/23 09:05:51;;;;;;;;;;;22.90;91.60;;;;;;5042857;28;19928;-76
2022/04/23 09:08:18;;;;;;;;;;;22.90;91.90;;;;;;5046349;28;20242;-78
2022/04/23 09:10:45;;;;;;;;;;;22.70;91.90;;;;;;5049781;28;20297;-78
2022/04/23 09:13:12;;;;;;;;;;;22.50;92.30;;;;;;5048717;28;19921;-79
2022/04/23 09:24:09;;;;;;;;;;;22.20;92.70;;;;;;5050330;28;20270;-79
2022/04/23 09:26:36;;;;;;;;;;;22.00;92.50;;;;;;5048463;28;19927;-79
2022/04/23 09:29:12;;;;;;;;;;;22.10;93.10;;;;;;5044458;28;19928;-75
2022/04/23 09:31:39;;;;;;;;;;;22.20;92.40;;;;;;5044817;28;19940;-75
2022/04/23 09:34:15;;;;;;;;;;;22.40;92.70;;;;;;5041972;28;20388;-70
2022/04/23 09:36:48;;;;;;;;;;;22.40;91.70;;;;;;5049477;28;19931;-70
2022/04/23 09:39:15;;;;;;;;;;;22.10;91.60;;;;;;5050979;28;19921;-70
2022/04/23 09:41:42;;;;;;;;;;;21.70;91.90;;;;;;5066669;28;19996;-70
2022/04/23 09:44:10;;;;;;;;;;;21.40;92.00;;;;;;5056048;28;19936;-70
2022/04/23 09:46:43;;;;;;;;;;;20.90;91.60;;;;;;5048645;28;20374;-70
2022/04/23 09:49:11;;;;;;;;;;;20.50;91.90;;;;;;5048892;28;19931;-70
2022/04/23 09:51:38;;;;;;;;;;;20.30;92.20;;;;;;5047036;28;19975;-70
2022/04/23 09:54:05;;;;;;;;;;;20.20;92.90;;;;;;5046216;28;19925;-71
2022/04/23 09:56:32;;;;;;;;;;;20.20;92.50;;;;;;5045138;28;19925;-71
2022/04/23 09:58:58;;;;;;;;;;;20.20;92.90;;;;;;5045840;28;19928;-70
2022/04/23 10:01:25;;;;;;;;;;;20.20;93.00;;;;;;5046549;28;19924;-70
2022/04/23 10:03:52;;;;;;;;;;;20.30;93.00;;;;;;5041815;28;19955;-70
2022/04/23 10:06:21;;;;;;;;;;;20.50;92.30;;;;;;5042666;28;19928;-70
2022/04/23 10:08:51;;;;;;;;;;;20.50;92.60;;;;;;5040057;28;19925;-69
2022/04/23 10:11:20;;;;;;;;;;;20.60;92.70;;;;;;5041740;28;19943;-70
2022/04/23 10:13:49;;;;;;;;;;;20.50;92.50;;;;;;5044878;28;20011;-70
2022/04/23 10:16:17;;;;;;;;;;;20.40;92.30;;;;;;5040400;28;19928;-70
2022/04/23 10:18:43;;;;;;;;;;;20.50;92.70;;;;;;5046927;28;20382;-70
2022/04/23 10:21:11;;;;;;;;;;;20.60;92.60;;;;;;5041798;28;20381;-70
2022/04/23 10:23:51;;;;;;;;;;;20.50;92.20;;;;;;5044336;28;19925;-70
2022/04/23 10:26:33;;;;;;;;;;;20.50;92.00;;;;;;5047872;28;19924;-69
2022/04/23 10:29:00;;;;;;;;;;;20.50;92.10;;;;;;5044017;28;19924;-70
2022/04/23 10:31:26;;;;;;;;;;;20.60;92.00;;;;;;5047059;28;19925;-70
2022/04/23 10:33:53;;;;;;;;;;;20.50;91.60;;;;;;5047195;28;19924;-70
2022/04/23 10:36:20;;;;;;;;;;;20.30;92.00;;;;;;5043995;28;20405;-71
2022/04/23 10:38:52;;;;;;;;;;;20.20;92.00;;;;;;5042595;28;19928;-71
2022/04/23 10:41:19;;;;;;;;;;;20.20;92.40;;;;;;5039252;28;20596;-70
2022/04/23 10:43:47;;;;;;;;;;;20.20;92.20;;;;;;5048378;28;19924;-70
2022/04/23 10:46:28;;;;;;;;;;;20.20;92.20;;;;;;5048592;28;19943;-70
2022/04/23 10:49:09;;;;;;;;;;;20.30;92.00;;;;;;5045741;28;19986;-71
2022/04/23 10:51:44;;;;;;;;;;;20.00;91.70;;;;;;5041077;28;19925;-70
2022/04/23 10:54:12;;;;;;;;;;;19.90;91.90;;;;;;5045823;28;19975;-71
2022/04/23 10:56:39;;;;;;;;;;;19.90;92.00;;;;;;5040038;28;19932;-70
2022/04/23 10:59:29;;;;;;;;;;;20.00;92.30;;;;;;5043913;28;19928;-71
2022/04/23 11:02:05;;;;;;;;;;;20.00;91.80;;;;;;5044270;28;19936;-71
2022/04/23 11:04:33;;;;;;;;;;;19.90;91.70;;;;;;5032789;28;19955;-70
2022/04/23 11:12:36;;;;;;;;;;;20.00;91.60;;;;;;5033769;28;19971;-71
2022/04/23 11:15:12;;;;;;;;;;;20.00;91.80;;;;;;5043448;28;19944;-71
2022/04/23 11:17:46;;;;;;;;;;;20.30;91.80;;;;;;5528089;22;19932;-71
2022/04/23 11:20:13;;;;;;;;;;;20.40;92.00;;;;;;4983985;28;19929;-71
2022/04/23 11:22:40;;;;;;;;;;;20.60;91.80;;;;;;5005052;28;20028;-71
2022/04/23 11:25:09;;;;;;;;;;;20.70;91.30;;;;;;5002484;28;20342;-71
2022/04/23 11:27:37;;;;;;;;;;;20.70;90.90;;;;;;5000995;28;20380;-71
2022/04/23 11:30:04;;;;;;;;;;;20.70;91.20;;;;;;5001674;28;19925;-71
2022/04/23 11:32:32;;;;;;;;;;;20.50;90.40;;;;;;5004611;22;20068;-86
2022/04/23 11:34:59;;;;;;;;;;;20.50;90.40;;;;;;5011265;28;20311;-87
2022/04/23 11:37:30;;;;;;;;;;;20.50;91.10;;;;;;5016150;28;19921;-87
2022/04/23 11:40:10;;;;;;;;;;;20.70;91.30;;;;;;5023832;28;19925;-86
2022/04/23 11:42:42;;;;;;;;;;;21.00;90.00;;;;;;5004411;28;19932;-86
2022/04/23 11:45:10;;;;;;;;;;;21.10;90.30;;;;;;5016497;28;19980;-86
2022/04/23 11:47:39;;;;;;;;;;;21.10;89.90;;;;;;5013312;28;19949;-86
2022/04/23 11:50:10;;;;;;;;;;;21.20;90.20;;;;;;5014537;28;19922;-86
2022/04/23 11:52:37;;;;;;;;;;;21.30;90.00;;;;;;5014690;28;19936;-86
2022/04/23 11:55:05;;;;;;;;;;;21.60;90.10;;;;;;5014045;28;20312;-86
2022/04/23 11:57:33;;;;;;;;;;;21.80;88.90;;;;;;5015349;28;19925;-87
2022/04/23 12:00:03;;;;;;;;;;;22.00;89.00;;;;;;5013589;28;20009;-87
2022/04/23 12:02:32;;;;;;;;;;;22.00;87.10;;;;;;5003627;28;19949;-85
2022/04/23 12:05:00;;;;;;;;;;;21.90;89.00;;;;;;5003829;28;19922;-85
2022/04/23 12:07:27;;;;;;;;;;;22.10;88.50;;;;;;5015683;28;19989;-86
2022/04/23 12:09:55;;;;;;;;;;;22.10;87.70;;;;;;5017508;28;19929;-87
2022/04/23 12:12:23;;;;;;;;;;;22.00;87.20;;;;;;5029650;28;19934;-86
2022/04/23 12:14:51;;;;;;;;;;;21.80;86.30;;;;;;5028515;28;19997;-88
2022/04/23 12:17:26;;;;;;;;;;;21.70;87.90;;;;;;5033639;28;19925;-89
2022/04/23 12:19:58;;;;;;;;;;;21.70;88.60;;;;;;5031422;28;19964;-87
2022/04/23 12:22:26;;;;;;;;;;;21.80;87.80;;;;;;5026722;28;19925;-86
2022/04/23 12:25:07;;;;;;;;;;;21.80;88.30;;;;;;5019204;28;19925;-86
2022/04/23 12:27:48;;;;;;;;;;;21.70;88.20;;;;;;5014644;28;19983;-88
2022/04/23 12:41:58;;;;;;;10.87;8.37;;;21.50;86.10;;;;;;5033861;28;20417;-88
2022/04/23 12:44:26;;;;;;;11.20;8.40;;;21.50;86.70;;;;;;5036528;28;20207;-88
2022/04/23 12:46:59;;;;;;;12.33;9.00;;;21.50;85.90;;;;;;5036261;28;20438;-89
2022/04/23 12:49:47;;;;;;;14.27;8.23;;;21.50;86.50;;;;;;5037581;28;20224;-88
2022/04/23 12:52:17;;;;;;;10.50;7.60;;;21.80;86.00;;;;;;5023583;28;20286;-87
2022/04/23 12:55:17;;;;;;;14.40;8.50;;;21.80;85.30;;;;;;5029159;28;20269;-87
2022/04/23 12:57:46;;;;;;;13.10;7.53;;;22.20;86.30;;;;;;5018947;28;20232;-88
2022/04/23 13:00:16;;;;;;;10.57;8.40;;;22.10;86.80;;;;;;5016979;28;20219;-87
2022/04/23 13:02:47;;;;;;;8.03;5.40;;;22.30;87.40;;;;;;5016408;28;20236;-87
2022/04/23 13:05:15;;;;;;;8.73;7.03;;;22.30;84.40;;;;;;5015531;28;20225;-87
2022/04/23 13:10:27;;;;;;;11.47;7.60;;;21.70;84.30;;;;;;5006344;28;20199;-86
2022/04/23 13:12:54;;;;;;;12.63;7.27;;;21.50;84.80;;;;;;5005442;28;20234;-85
2022/04/23 13:15:22;;;;;;;9.70;7.10;;;;;;;;;;5030494;28;20212;-87
2022/04/23 13:17:51;;;;;;;12.20;7.10;;;;;;;;;;5013054;28;20264;-85
2022/04/23 13:20:19;;;;;;;10.23;7.40;;;21.90;84.50;;;;;;5011030;28;20992;-86
2022/04/23 13:22:46;;;;;;;10.07;6.70;;;21.90;83.60;;;;;;5011754;28;20228;-87
2022/04/23 13:25:16;;;;;;;8.70;6.77;;;22.00;83.70;;;;;;5012834;28;20325;-86
2022/04/23 13:27:44;;;;;;;8.70;5.87;;;22.00;84.30;;;;;;5012432;28;20239;-86
2022/04/23 13:30:13;;;;;;;9.43;7.37;;;21.80;83.40;;;;;;5015638;28;20209;-86
2022/04/23 13:32:43;;;;;;;8.53;6.83;;;21.50;84.00;;;;;;5027979;28;20602;-86
2022/04/23 13:35:14;;;;;;;10.53;7.73;;;21.50;84.90;;;;;;5005196;28;20281;-86
2022/04/23 13:37:42;;;;;;;9.40;6.30;;;21.80;84.10;;;;;;5010591;28;20237;-86
2022/04/23 13:40:12;;;;;;;10.03;5.97;;;22.00;83.70;;;;;;5007666;28;20290;-86
2022/04/23 13:42:41;;;;;;;8.83;6.80;;;22.30;83.40;;;;;;5011405;28;20245;-86
2022/04/23 13:45:10;;;;;;;16.97;7.57;;;22.60;83.10;;;;;;5010594;28;20210;-85
2022/04/23 13:47:37;;;;;;;13.47;7.53;;;22.70;83.60;;;;;;5013442;28;20238;-87
2022/04/23 13:50:06;;;;;;;13.57;7.80;;;22.80;83.20;;;;;;5012178;28;20864;-86
2022/04/23 13:52:42;;;;;;;14.17;9.10;;;22.70;83.30;;;;;;5019071;28;20233;-86
2022/04/23 13:55:11;;;;;;;15.03;9.80;;;22.30;82.90;;;;;;5015512;28;20216;-86
2022/04/23 13:57:40;;;;;;;12.97;9.10;;;21.80;83.50;;;;;;5011878;28;20294;-86
2022/04/23 14:00:13;;;;;;;12.40;9.13;;;21.60;84.50;;;;;;5010677;28;20641;-87
2022/04/23 14:11:01;;;;;;;11.43;7.93;;;22.00;84.50;;;;;;5004921;28;20210;-91
2022/04/23 14:13:29;;;;;;;9.87;8.53;;;22.10;84.20;;;;;;5012729;28;20237;-90
2022/04/23 14:15:57;;;;;;;15.13;8.60;;;;;;;;;;5010097;28;20214;-90
2022/04/23 14:18:26;;;;;;;14.73;8.97;;;21.90;83.10;;;;;;5010433;28;20205;-90
2022/04/23 14:20:53;;;;;;;15.13;9.07;;;;;;;;;;5026663;28;20209;-90
2022/04/23 14:23:23;;;;;;;17.53;8.77;;;;;;;;;;5013381;28;20229;-90
2022/04/23 14:25:52;;;;;;;16.97;9.00;;;;;;;;;;5014535;28;20226;-90
2022/04/23 14:28:20;;;;;;;12.77;9.30;;;;;;;;;;5009777;28;20287;-90
2022/04/23 14:30:51;;;;;;;17.73;8.50;;;;;;;;;;5009813;28;20243;-90
2022/04/23 14:33:18;;;;;;;10.53;8.13;;;;;;;;;;5010547;28;20250;-91
2022/04/23 14:35:46;;;;;;;13.43;8.63;;;20.70;83.60;;;;;;5013141;28;20239;-90
2022/04/23 14:38:13;;;;;;;11.60;9.33;;;21.80;85.20;;;;;;5026071;28;20212;-89
2022/04/23 14:40:44;;;;;;;14.60;8.17;;;;;;;;;;5025154;28;20217;-90
2022/04/23 14:43:12;;;;;;;13.13;8.63;;;21.90;84.00;;;;;;5022156;28;20230;-91
2022/04/23 14:45:41;;;;;;;15.77;7.77;;;22.00;84.90;;;;;;5012048;28;20220;-91
2022/04/23 14:48:09;;;;;;;8.50;6.63;;;21.50;82.80;;;;;;5012623;28;20898;-91
2022/04/23 14:53:18;;;;;;;11.80;6.87;;;;;;;;;;5010669;28;20231;-91
2022/04/23 14:55:48;;;;;;;10.90;8.43;;;;;;;;;;5010027;28;20208;-91
2022/04/23 14:58:17;;;;;;;10.67;7.07;;;;;;;;;;5007788;28;20210;-90
2022/04/23 15:00:44;;;;;;;10.43;5.60;;;;;;;;;;5022050;28;20211;-90
2022/04/23 15:03:12;;;;;;;10.00;7.03;;;;;;;;;;5027702;28;20280;-90
2022/04/23 15:05:42;;;;;;;15.43;6.87;;;;;;;;;;5016307;28;20216;-91